Time;durP1;ratioP1;P1;durP2;ratioP2;P2;SDS_P1;SDS_P2;PMS_P1;PMS_P2;Temp;Humidity;BMP_temperature;BMP_pressure;BME280_temperature;BME280_humidity;BME280_pressure;Samples;Min_cycle;Max_cycle;Signal;HPM_P1;HPM_P2
2021/09/14 00:02:13;;;;;;;18.75;8.95;;;537.90;1868.80;;;;;;4907131;29;20032;-82
2021/09/14 00:04:39;;;;;;;15.40;9.18;;;537.90;1868.80;;;;;;4905128;29;20450;-82
2021/09/14 00:07:05;;;;;;;20.05;9.43;;;537.70;1894.40;;;;;;4907668;29;20017;-84
2021/09/14 00:09:31;;;;;;;19.92;9.63;;;537.80;1894.40;;;;;;4910005;29;20039;-76
2021/09/14 00:11:57;;;;;;;20.35;9.18;;;537.70;1894.40;;;;;;4907219;29;20040;-77
2021/09/14 00:14:22;;;;;;;15.55;9.02;;;537.60;1894.40;;;;;;4910209;29;20025;-76
2021/09/14 00:16:48;;;;;;;13.30;9.00;;;537.60;1920.00;;;;;;4907547;29;20036;-80
2021/09/14 00:19:15;;;;;;;18.10;9.98;;;537.60;1920.00;;;;;;4909233;29;20119;-80
2021/09/14 00:21:41;;;;;;;21.90;9.88;;;537.70;1920.00;;;;;;4890039;29;20032;-79
2021/09/14 00:24:07;;;;;;;17.20;10.25;;;537.60;1920.00;;;;;;4894012;29;20039;-79
2021/09/14 00:26:33;;;;;;;30.23;10.90;;;537.70;1920.00;;;;;;4900982;29;20494;-81
2021/09/14 00:29:00;;;;;;;18.60;9.45;;;537.80;1920.00;;;;;;4900557;29;20075;-78
2021/09/14 00:31:26;;;;;;;23.52;9.60;;;537.80;1920.00;;;;;;4896256;29;20021;-79
2021/09/14 00:33:52;;;;;;;25.52;11.13;;;537.80;1920.00;;;;;;4897418;29;20483;-77
2021/09/14 00:36:18;;;;;;;15.85;9.88;;;537.80;1920.00;;;;;;4912095;29;20028;-76
2021/09/14 00:38:44;;;;;;;17.83;10.43;;;537.80;1920.00;;;;;;4912131;29;20397;-81
2021/09/14 00:41:11;;;;;;;16.08;9.80;;;537.80;1920.00;;;;;;4911885;29;20040;-78
2021/09/14 00:43:37;;;;;;;23.15;10.40;;;537.90;1894.40;;;;;;4910963;29;20423;-82
2021/09/14 00:46:03;;;;;;;22.92;11.45;;;537.80;1894.40;;;;;;4906958;29;20036;-81
2021/09/14 00:48:29;;;;;;;18.30;10.77;;;537.80;1894.40;;;;;;4906091;29;20039;-82
2021/09/14 00:50:55;;;;;;;24.88;10.93;;;537.80;1894.40;;;;;;4908534;29;20035;-81
2021/09/14 00:53:23;;;;;;;15.02;10.65;;;537.70;1920.00;;;;;;4909238;29;20033;-76
2021/09/14 00:55:49;;;;;;;18.33;10.30;;;537.60;1920.00;;;;;;4890456;29;20434;-77
2021/09/14 00:58:15;;;;;;;22.30;11.35;;;537.60;1920.00;;;;;;4908493;29;20032;-81
2021/09/14 01:00:41;;;;;;;16.60;10.75;;;512.90;1920.00;;;;;;4906453;29;20020;-76
2021/09/14 01:03:07;;;;;;;18.65;10.88;;;512.90;1920.00;;;;;;4908902;29;20394;-80
2021/09/14 01:05:33;;;;;;;18.88;11.77;;;512.90;1920.00;;;;;;4906335;29;20489;-81
2021/09/14 01:08:00;;;;;;;25.42;11.60;;;512.90;1920.00;;;;;;4908485;29;20090;-78
2021/09/14 01:10:27;;;;;;;21.77;11.80;;;512.90;1920.00;;;;;;4906809;29;20079;-81
2021/09/14 01:12:52;;;;;;;23.60;11.50;;;512.90;1920.00;;;;;;4887287;29;20044;-76
2021/09/14 01:15:18;;;;;;;18.80;11.98;;;512.90;1920.00;;;;;;4908376;29;20055;-81
2021/09/14 01:17:44;;;;;;;26.23;10.85;;;512.90;1945.60;;;;;;4889655;29;20035;-76
2021/09/14 01:20:10;;;;;;;22.55;12.18;;;512.70;1945.60;;;;;;4907105;29;20039;-76
2021/09/14 01:22:36;;;;;;;17.98;11.68;;;512.70;1971.20;;;;;;4905549;29;20103;-76
2021/09/14 01:25:19;;;;;;;21.45;11.77;;;512.60;1971.20;;;;;;4907785;29;20148;-76
2021/09/14 01:27:45;;;;;;;23.58;11.63;;;512.60;1971.20;;;;;;4910287;29;20172;-76
2021/09/14 01:30:13;;;;;;;18.23;11.52;;;512.60;1945.60;;;;;;4907420;29;20042;-78
2021/09/14 01:32:42;;;;;;;22.65;11.75;;;512.60;1945.60;;;;;;4907295;29;20040;-77
2021/09/14 01:35:28;;;;;;;22.35;11.85;;;512.60;1945.60;;;;;;4911512;29;20027;-81
2021/09/14 01:37:54;;;;;;;18.92;11.68;;;512.60;1971.20;;;;;;4910325;29;20043;-83
2021/09/14 01:40:20;;;;;;;23.67;11.75;;;512.60;1971.20;;;;;;4910203;29;20033;-77
2021/09/14 01:42:47;;;;;;;24.02;11.48;;;512.60;1971.20;;;;;;4911640;29;20028;-83
2021/09/14 01:45:14;;;;;;;17.92;12.38;;;512.50;1996.80;;;;;;4894872;29;20422;-82
2021/09/14 01:47:41;;;;;;;19.38;11.32;;;512.40;1996.80;;;;;;4895151;29;20390;-79
2021/09/14 01:50:09;;;;;;;23.38;12.63;;;512.30;2022.40;;;;;;4910357;29;20028;-81
2021/09/14 01:52:35;;;;;;;14.50;10.90;;;512.20;2048.00;;;;;;4910096;29;20441;-80
2021/09/14 01:55:07;;;;;;;21.30;12.13;;;512.20;2073.60;;;;;;4909184;29;20025;-77
2021/09/14 01:57:36;;;;;;;20.85;12.32;;;512.00;2073.60;;;;;;4909816;29;20035;-80
2021/09/14 02:00:10;;;;;;;17.98;11.02;;;512.10;2073.60;;;;;;4909463;29;20021;-76
2021/09/14 02:30:12;;;;;;;24.27;12.00;;;487.30;2048.00;;;;;;4824559;29;20045;-77
2021/09/14 02:41:33;;;;;;;21.95;12.77;;;487.00;2099.20;;;;;;4805947;29;20039;-80
2021/09/14 03:00:20;;;;;;;24.13;13.73;;;487.00;2124.80;;;;;;4742744;30;20072;-79
2021/09/14 03:02:46;;;;;;;24.38;14.00;;;486.80;2176.00;;;;;;4744203;30;20048;-80
2021/09/14 03:05:14;;;;;;;17.73;13.15;;;487.00;2176.00;;;;;;4743097;30;20057;-78
2021/09/14 03:07:40;;;;;;;25.88;14.18;;;487.00;2176.00;;;;;;4757911;30;20403;-82
2021/09/14 03:10:06;;;;;;;23.58;13.70;;;486.90;2150.40;;;;;;4768935;30;20054;-80
2021/09/14 03:12:32;;;;;;;21.02;14.85;;;487.00;2150.40;;;;;;4778262;30;20054;-81
2021/09/14 03:14:57;;;;;;;25.33;13.75;;;486.90;2176.00;;;;;;4777830;30;20114;-76
2021/09/14 03:17:23;;;;;;;24.88;13.65;;;486.90;2176.00;;;;;;4794208;29;20397;-79
2021/09/14 03:19:49;;;;;;;26.02;15.00;;;486.70;2201.60;;;;;;4853057;29;20034;-80
2021/09/14 03:22:15;;;;;;;26.92;14.82;;;486.60;2227.20;;;;;;4850747;29;20042;-83
2021/09/14 03:24:40;;;;;;;21.48;14.23;;;486.60;2227.20;;;;;;4850970;29;20495;-82
2021/09/14 03:27:06;;;;;;;25.13;12.95;;;486.70;2201.60;;;;;;4852390;29;20154;-78
2021/09/14 03:29:32;;;;;;;25.00;14.77;;;486.70;2227.20;;;;;;4886599;29;20084;-76
2021/09/14 03:31:57;;;;;;;18.58;13.38;;;486.80;2252.80;;;;;;4881163;29;20021;-77
2021/09/14 03:34:23;;;;;;;24.45;13.27;;;486.80;2227.20;;;;;;4888668;29;20045;-77
2021/09/14 03:36:49;;;;;;;18.02;13.25;;;486.70;2201.60;;;;;;4891757;29;20076;-79
2021/09/14 03:39:14;;;;;;;20.27;14.60;;;486.70;2227.20;;;;;;4896211;29;20037;-79
2021/09/14 03:41:40;;;;;;;20.27;13.13;;;486.50;2278.40;;;;;;4890359;29;20475;-76
2021/09/14 03:44:06;;;;;;;24.40;13.30;;;486.70;2252.80;;;;;;4891205;29;20475;-79
2021/09/14 03:46:32;;;;;;;22.95;13.70;;;486.70;2227.20;;;;;;4889169;29;20029;-79
2021/09/14 03:48:57;;;;;;;21.67;13.85;;;486.70;2227.20;;;;;;4892350;29;20534;-79
2021/09/14 03:51:23;;;;;;;23.85;14.63;;;486.70;2227.20;;;;;;4890331;29;20076;-77
2021/09/14 03:53:49;;;;;;;30.63;14.65;;;486.70;2252.80;;;;;;4888642;29;20036;-76
2021/09/14 03:56:15;;;;;;;23.67;14.13;;;486.80;2227.20;;;;;;4884069;29;20033;-78
2021/09/14 03:58:40;;;;;;;30.63;14.38;;;486.70;2227.20;;;;;;4874846;29;20372;-79
2021/09/14 04:01:06;;;;;;;24.15;14.73;;;486.70;2252.80;;;;;;4880556;29;20456;-79
2021/09/14 04:11:14;;;;;;;27.90;14.95;;;486.50;2252.80;;;;;;4880437;29;20059;-79
2021/09/14 04:13:40;;;;;;;33.28;15.05;;;486.40;2278.40;;;;;;4880475;29;20108;-76
2021/09/14 04:16:05;;;;;;;21.58;14.93;;;486.50;2252.80;;;;;;4880922;29;20556;-76
2021/09/14 04:18:31;;;;;;;23.23;13.77;;;486.50;2227.20;;;;;;4880571;29;20021;-82
2021/09/14 04:20:57;;;;;;;23.67;14.13;;;486.50;2252.80;;;;;;4880407;29;20029;-79
2021/09/14 04:23:23;;;;;;;27.58;13.93;;;486.50;2252.80;;;;;;4880199;29;20029;-77
2021/09/14 04:25:48;;;;;;;22.60;13.23;;;486.50;2252.80;;;;;;4880420;29;20124;-77
2021/09/14 04:28:14;;;;;;;28.45;14.98;;;486.70;2278.40;;;;;;4880073;29;20032;-78
2021/09/14 04:30:40;;;;;;;20.13;13.65;;;486.60;2278.40;;;;;;4880080;29;20037;-77
2021/09/14 04:33:06;;;;;;;21.42;14.70;;;486.50;2304.00;;;;;;4879877;29;20025;-80
2021/09/14 04:35:32;;;;;;;20.85;14.60;;;486.70;2278.40;;;;;;4880021;29;20036;-76
2021/09/14 04:37:58;;;;;;;18.85;14.00;;;486.60;2304.00;;;;;;4876302;29;20057;-79
2021/09/14 04:40:24;;;;;;;23.80;13.50;;;486.70;2278.40;;;;;;4879854;29;20033;-79
2021/09/14 04:42:49;;;;;;;22.48;13.95;;;486.70;2278.40;;;;;;4879850;29;20025;-78
2021/09/14 04:45:15;;;;;;;23.67;14.23;;;486.70;2304.00;;;;;;4870740;29;20041;-76
2021/09/14 04:47:41;;;;;;;29.80;14.63;;;486.70;2304.00;;;;;;4879625;29;20029;-78
2021/09/14 04:50:07;;;;;;;24.13;14.10;;;486.80;2278.40;;;;;;4879692;29;20037;-79
2021/09/14 04:52:33;;;;;;;24.23;15.05;;;486.90;2278.40;;;;;;4879655;29;20029;-76
2021/09/14 04:54:59;;;;;;;24.05;15.27;;;487.00;2278.40;;;;;;4879706;29;20076;-79
2021/09/14 04:57:24;;;;;;;22.98;15.15;;;486.90;2278.40;;;;;;4879938;29;20053;-82
2021/09/14 04:59:50;;;;;;;25.70;14.75;;;487.00;2278.40;;;;;;4879889;29;20096;-77
2021/09/14 05:02:16;;;;;;;23.85;14.30;;;487.00;2278.40;;;;;;4879608;29;20542;-81
2021/09/14 05:04:41;;;;;;;25.65;15.60;;;487.00;2278.40;;;;;;4879667;29;20036;-81
2021/09/14 05:07:07;;;;;;;24.95;15.40;;;487.00;2278.40;;;;;;4878595;29;20025;-76
2021/09/14 05:09:33;;;;;;;27.40;15.48;;;487.00;2278.40;;;;;;4879338;29;20056;-77
2021/09/14 05:11:59;;;;;;;24.20;13.90;;;487.10;2278.40;;;;;;4888966;29;20052;-80
2021/09/14 05:14:24;;;;;;;20.50;13.27;;;487.00;2278.40;;;;;;4897992;29;20032;-77
2021/09/14 05:16:50;;;;;;;19.52;14.45;;;487.10;2278.40;;;;;;4893608;29;20518;-79
2021/09/14 05:19:23;;;;;;;20.30;13.32;;;487.10;2278.40;;;;;;4897973;29;20032;-77
2021/09/14 05:21:49;;;;;;;25.73;13.23;;;487.10;2278.40;;;;;;4893222;29;20028;-80
2021/09/14 05:24:14;;;;;;;23.23;13.90;;;487.10;2278.40;;;;;;4896737;29;20036;-81
2021/09/14 05:26:41;;;;;;;18.55;13.30;;;487.10;2278.40;;;;;;4898129;29;20029;-77
2021/09/14 05:29:07;;;;;;;20.02;13.13;;;487.10;2278.40;;;;;;4894239;29;20039;-81
2021/09/14 05:31:34;;;;;;;19.52;13.60;;;487.30;2252.80;;;;;;4887750;29;20021;-77
2021/09/14 05:34:01;;;;;;;22.15;13.60;;;487.30;2252.80;;;;;;4892341;29;20032;-80
2021/09/14 05:36:27;;;;;;;21.27;13.90;;;487.30;2252.80;;;;;;4893203;29;20087;-81
2021/09/14 05:38:53;;;;;;;19.67;12.45;;;487.20;2278.40;;;;;;4893800;29;20028;-76
2021/09/14 05:41:18;;;;;;;17.83;13.25;;;487.30;2278.40;;;;;;4893720;29;20032;-76
2021/09/14 05:43:44;;;;;;;18.08;13.35;;;512.00;2278.40;;;;;;4890382;29;20589;-76
2021/09/14 05:46:10;;;;;;;21.08;13.40;;;512.10;2252.80;;;;;;4887138;29;20022;-76
2021/09/14 05:48:37;;;;;;;25.40;14.20;;;512.20;2252.80;;;;;;4886032;29;20085;-82
2021/09/14 05:51:02;;;;;;;22.25;13.07;;;512.20;2252.80;;;;;;4889545;29;20055;-81
2021/09/14 05:53:28;;;;;;;18.25;12.82;;;512.40;2252.80;;;;;;4885734;29;20052;-82
2021/09/14 05:55:54;;;;;;;27.40;12.90;;;512.50;2252.80;;;;;;4889318;29;20031;-80
2021/09/14 05:58:20;;;;;;;20.40;13.15;;;512.50;2252.80;;;;;;4888889;29;20032;-77
2021/09/14 06:00:45;;;;;;;25.40;13.40;;;512.50;2252.80;;;;;;4886963;29;20069;-79
2021/09/14 06:03:11;;;;;;;20.58;12.82;;;512.60;2227.20;;;;;;4886096;29;20036;-79
2021/09/14 06:05:37;;;;;;;20.13;12.77;;;512.60;2227.20;;;;;;4877226;29;20551;-80
2021/09/14 06:08:03;;;;;;;22.58;13.35;;;512.50;2252.80;;;;;;4879165;29;20032;-86
2021/09/14 06:10:28;;;;;;;15.40;12.68;;;512.50;2278.40;;;;;;4878931;29;20400;-77
2021/09/14 06:12:54;;;;;;;20.85;13.30;;;512.60;2278.40;;;;;;4878806;29;20049;-78
2021/09/14 06:15:20;;;;;;;18.75;12.60;;;512.70;2252.80;;;;;;4870608;29;20135;-77
2021/09/14 06:17:46;;;;;;;19.58;12.60;;;512.80;2252.80;;;;;;4879275;29;20093;-80
2021/09/14 06:20:12;;;;;;;17.00;12.60;;;512.90;2227.20;;;;;;4882557;29;20039;-77
2021/09/14 06:22:38;;;;;;;16.17;11.85;;;537.60;2252.80;;;;;;4882678;29;20056;-87
2021/09/14 06:25:04;;;;;;;25.60;13.30;;;537.80;2227.20;;;;;;4882400;29;20467;-81
2021/09/14 06:27:29;;;;;;;20.48;12.35;;;537.90;2227.20;;;;;;4882129;29;20085;-83
2021/09/14 06:29:55;;;;;;;19.35;13.38;;;538.00;2227.20;;;;;;4882392;29;20037;-82
2021/09/14 06:32:21;;;;;;;17.15;12.52;;;538.10;2227.20;;;;;;4882347;29;20044;-77
2021/09/14 06:34:47;;;;;;;23.30;13.32;;;538.20;2227.20;;;;;;4882336;29;20037;-78
2021/09/14 06:37:12;;;;;;;16.80;12.30;;;538.40;2227.20;;;;;;4882112;29;20036;-80
2021/09/14 06:39:38;;;;;;;20.40;11.90;;;538.50;2201.60;;;;;;4876218;29;20036;-78
2021/09/14 06:42:04;;;;;;;20.38;11.40;;;563.40;2227.20;;;;;;4881312;29;20055;-82
2021/09/14 06:44:32;;;;;;;19.50;11.63;;;563.40;2201.60;;;;;;4887762;29;20119;-76
2021/09/14 06:46:58;;;;;;;24.27;11.82;;;563.60;2201.60;;;;;;4915237;29;20042;-81
2021/09/14 06:49:26;;;;;;;17.63;12.13;;;563.60;2201.60;;;;;;4892563;29;20064;-76
2021/09/14 06:51:51;;;;;;;13.65;10.88;;;563.70;2176.00;;;;;;4910168;29;20040;-78
2021/09/14 06:54:17;;;;;;;21.00;11.48;;;563.70;2201.60;;;;;;4892839;29;20580;-78
2021/09/14 06:56:43;;;;;;;18.85;11.48;;;563.90;2176.00;;;;;;4897275;29;20399;-78
2021/09/14 06:59:09;;;;;;;16.85;11.60;;;564.10;2150.40;;;;;;4900127;29;20040;-79
2021/09/14 07:01:34;;;;;;;14.15;11.55;;;588.80;2150.40;;;;;;4900523;29;20547;-80
2021/09/14 07:04:00;;;;;;;19.25;11.77;;;588.90;2150.40;;;;;;4888436;29;20529;-77
2021/09/14 07:06:26;;;;;;;19.80;10.40;;;589.00;2150.40;;;;;;4881706;29;20071;-84
2021/09/14 07:08:52;;;;;;;18.08;11.07;;;589.10;2150.40;;;;;;4877272;29;20037;-82
2021/09/14 07:11:17;;;;;;;15.73;10.40;;;589.30;2124.80;;;;;;4881590;29;20510;-82
2021/09/14 07:13:43;;;;;;;22.20;11.95;;;589.40;2099.20;;;;;;4875572;29;20092;-77
2021/09/14 07:16:09;;;;;;;13.30;9.68;;;589.50;2073.60;;;;;;4881702;29;20029;-85
2021/09/14 07:18:38;;;;;;;25.77;12.30;;;589.60;2073.60;;;;;;4881439;29;20021;-76
2021/09/14 07:21:04;;;;;;;14.45;9.93;;;589.70;2099.20;;;;;;4881503;29;20049;-80
2021/09/14 07:23:30;;;;;;;20.90;10.85;;;589.70;2048.00;;;;;;4874313;29;20151;-82
2021/09/14 07:25:56;;;;;;;17.50;11.90;;;589.70;2048.00;;;;;;4881656;29;20028;-82
2021/09/14 07:28:22;;;;;;;14.88;10.23;;;614.40;2073.60;;;;;;4881366;29;20029;-77
2021/09/14 07:30:49;;;;;;;16.90;10.93;;;614.40;2073.60;;;;;;4875656;29;20067;-80
2021/09/14 07:33:15;;;;;;;13.95;11.02;;;614.50;2073.60;;;;;;4881365;29;20033;-82
2021/09/14 07:35:41;;;;;;;20.27;10.27;;;614.50;2073.60;;;;;;4878170;29;20193;-82
2021/09/14 07:38:08;;;;;;;21.92;10.90;;;614.60;2048.00;;;;;;4889393;29;20092;-81
2021/09/14 07:40:34;;;;;;;15.55;9.45;;;614.60;2022.40;;;;;;4890231;29;20051;-79
2021/09/14 07:43:01;;;;;;;12.82;9.50;;;614.60;2022.40;;;;;;4890771;29;20480;-77
2021/09/14 07:45:30;;;;;;;15.23;10.55;;;614.80;2022.40;;;;;;4889144;29;20115;-77
2021/09/14 07:47:56;;;;;;;17.05;9.30;;;614.80;2022.40;;;;;;4889133;29;20060;-83
2021/09/14 07:50:22;;;;;;;20.27;10.00;;;614.80;2022.40;;;;;;4896933;29;20060;-77
2021/09/14 07:52:49;;;;;;;20.30;10.15;;;614.80;2022.40;;;;;;4881619;29;20025;-80
2021/09/14 07:55:15;;;;;;;13.07;9.23;;;614.90;2048.00;;;;;;4885322;29;20047;-77
2021/09/14 07:57:41;;;;;;;12.00;8.68;;;614.90;2022.40;;;;;;4888903;29;20538;-75
2021/09/14 08:00:07;;;;;;;14.23;8.70;;;615.00;1996.80;;;;;;4886791;29;20113;-79
2021/09/14 08:02:33;;;;;;;12.35;7.97;;;615.00;1996.80;;;;;;4873508;29;20507;-75
2021/09/14 08:04:59;;;;;;;10.25;7.88;;;615.10;1996.80;;;;;;4879119;29;20124;-76
2021/09/14 08:07:25;;;;;;;13.25;7.93;;;615.20;1996.80;;;;;;4880348;29;20072;-79
2021/09/14 08:09:50;;;;;;;10.30;8.45;;;615.20;1971.20;;;;;;4891706;29;20080;-77
2021/09/14 08:12:16;;;;;;;17.55;8.43;;;615.20;1971.20;;;;;;4906061;29;20087;-76
2021/09/14 08:14:42;;;;;;;11.95;8.07;;;615.20;1971.20;;;;;;4880206;29;20029;-79
2021/09/14 08:17:08;;;;;;;15.50;8.40;;;615.20;1945.60;;;;;;4887731;29;20029;-78
2021/09/14 08:19:33;;;;;;;11.73;8.27;;;615.20;1945.60;;;;;;4898373;29;20032;-78
2021/09/14 08:21:59;;;;;;;9.25;7.20;;;615.30;1971.20;;;;;;4889827;29;20435;-78
2021/09/14 08:24:25;;;;;;;16.77;8.77;;;615.30;1945.60;;;;;;4881985;29;20040;-76
2021/09/14 08:26:51;;;;;;;19.70;7.97;;;640.00;1920.00;;;;;;4887882;29;20124;-77
2021/09/14 08:29:17;;;;;;;13.38;8.55;;;640.10;1945.60;;;;;;4888733;29;20040;-81
2021/09/14 08:31:43;;;;;;;15.25;8.23;;;640.10;1920.00;;;;;;4889661;29;20084;-76
2021/09/14 08:34:09;;;;;;;11.18;8.10;;;640.20;1920.00;;;;;;4888761;29;20491;-78
2021/09/14 08:36:36;;;;;;;11.52;7.22;;;640.30;1894.40;;;;;;4888498;29;20036;-76
2021/09/14 08:39:03;;;;;;;15.55;7.22;;;640.30;1894.40;;;;;;4890152;29;20035;-77
2021/09/14 08:41:29;;;;;;;14.93;7.15;;;640.40;1894.40;;;;;;4898330;29;20024;-77
2021/09/14 08:43:54;;;;;;;12.98;6.50;;;640.40;1868.80;;;;;;4897572;29;20080;-76
2021/09/14 08:46:23;;;;;;;8.98;6.57;;;640.50;1894.40;;;;;;4899625;29;20033;-76
2021/09/14 08:48:49;;;;;;;8.85;6.32;;;640.60;1868.80;;;;;;4885752;29;20431;-76
2021/09/14 08:51:16;;;;;;;12.00;7.35;;;640.70;1868.80;;;;;;4894420;29;20036;-76
2021/09/14 08:53:42;;;;;;;12.98;7.18;;;640.70;1843.20;;;;;;4897435;29;20021;-75
2021/09/14 08:56:09;;;;;;;9.07;5.82;;;640.90;1843.20;;;;;;4897957;29;20471;-76
2021/09/14 08:58:35;;;;;;;11.18;6.70;;;665.60;1843.20;;;;;;4898069;29;20036;-76
2021/09/14 09:01:02;;;;;;;15.63;6.28;;;665.60;1843.20;;;;;;4897808;29;20025;-76
2021/09/14 09:03:30;;;;;;;12.93;5.93;;;665.70;1843.20;;;;;;4897862;29;20497;-75
2021/09/14 09:05:59;;;;;;;9.40;6.32;;;665.90;1843.20;;;;;;4898049;29;20032;-77
2021/09/14 09:08:26;;;;;;;9.05;6.50;;;666.00;1817.60;;;;;;4897784;29;20161;-76
2021/09/14 09:11:04;;;;;;;8.48;6.07;;;666.10;1817.60;;;;;;4897806;29;20467;-78
2021/09/14 09:13:46;;;;;;;8.02;5.82;;;666.20;1792.00;;;;;;4887592;29;20041;-76
2021/09/14 09:16:27;;;;;;;8.18;6.10;;;666.50;1792.00;;;;;;4891958;29;20032;-79
2021/09/14 09:19:01;;;;;;;13.13;5.88;;;691.20;1766.40;;;;;;4897807;29;20024;-77
2021/09/14 09:21:28;;;;;;;12.32;5.75;;;691.30;1792.00;;;;;;4895252;29;20021;-76
2021/09/14 09:23:56;;;;;;;9.50;6.10;;;691.40;1792.00;;;;;;4896769;29;20029;-76
2021/09/14 09:26:47;;;;;;;10.48;5.60;;;691.50;1792.00;;;;;;4883207;29;20032;-79
2021/09/14 09:29:23;;;;;;;18.38;6.18;;;691.70;1740.80;;;;;;4878667;29;20081;-78
2021/09/14 09:31:51;;;;;;;10.80;6.03;;;691.70;1740.80;;;;;;4884155;29;20117;-78
2021/09/14 09:34:27;;;;;;;16.10;6.47;;;691.90;1715.20;;;;;;4887902;29;20085;-79
2021/09/14 09:36:59;;;;;;;;;;;692.00;1689.60;;;;;;4888939;29;20018;-80
2021/09/14 09:39:45;;;;;;;7.88;5.63;;;692.00;1689.60;;;;;;4891895;29;19979;-79
2021/09/14 09:42:12;;;;;;;9.45;5.40;;;716.90;1689.60;;;;;;4891700;29;20057;-76
2021/09/14 09:44:38;;;;;;;7.70;5.55;;;717.00;1664.00;;;;;;4887892;29;20115;-77
2021/09/14 09:47:05;;;;;;;16.48;6.65;;;717.20;1638.40;;;;;;4892589;29;20025;-78
2021/09/14 09:49:32;;;;;;;13.32;5.85;;;717.20;1638.40;;;;;;4896803;29;20033;-76
2021/09/14 09:51:59;;;;;;;13.75;5.82;;;717.40;1638.40;;;;;;4897501;29;20112;-77
2021/09/14 09:54:25;;;;;;;9.27;6.15;;;717.50;1638.40;;;;;;4899824;29;20502;-76
2021/09/14 09:56:52;;;;;;;9.98;5.78;;;742.40;1638.40;;;;;;4901168;29;20486;-77
2021/09/14 09:59:18;;;;;;;8.90;4.80;;;742.50;1587.20;;;;;;4901139;29;20017;-77
2021/09/14 10:02:07;;;;;;;8.95;5.35;;;742.60;1587.20;;;;;;4900731;29;20040;-78
2021/09/14 10:04:44;;;;;;;8.82;5.57;;;742.80;1561.60;;;;;;4894938;29;20028;-76
2021/09/14 10:07:12;;;;;;;8.27;5.18;;;742.90;1536.00;;;;;;4901059;29;20502;-76
2021/09/14 10:09:51;;;;;;;6.47;4.85;;;743.10;1536.00;;;;;;4900869;29;20037;-75
2021/09/14 10:12:27;;;;;;;8.68;4.35;;;743.30;1484.80;;;;;;4900807;29;20045;-77
2021/09/14 10:15:01;;;;;;;6.85;4.47;;;768.00;1433.60;;;;;;4900861;29;20032;-77
2021/09/14 10:17:28;;;;;;;7.00;4.63;;;768.20;1433.60;;;;;;4900754;29;20033;-77
2021/09/14 10:19:54;;;;;;;7.32;5.03;;;768.40;1408.00;;;;;;4900853;29;20499;-81
2021/09/14 10:22:28;;;;;;;8.48;4.22;;;768.50;1408.00;;;;;;4901001;29;20102;-78
2021/09/14 10:25:01;;;;;;;9.23;4.15;;;768.70;1356.80;;;;;;4901006;29;20069;-81
2021/09/14 10:27:38;;;;;;;13.85;5.20;;;768.70;1382.40;;;;;;4899058;29;20059;-79
2021/09/14 10:30:06;;;;;;;7.82;4.38;;;793.60;1382.40;;;;;;4895378;29;20042;-80
2021/09/14 10:32:43;;;;;;;5.35;4.20;;;793.60;1356.80;;;;;;4893994;29;20028;-83
2021/09/14 10:35:11;;;;;;;5.25;3.85;;;793.60;1382.40;;;;;;4901090;29;20550;-83
2021/09/14 10:37:38;;;;;;;12.95;4.63;;;793.90;1331.20;;;;;;4901132;29;20035;-83
2021/09/14 10:40:13;;;;;;;7.35;4.13;;;794.10;1305.60;;;;;;4897499;29;20025;-83
2021/09/14 10:42:42;;;;;;;5.75;4.63;;;794.20;1305.60;;;;;;4894799;29;20481;-85
2021/09/14 10:45:20;;;;;;;7.22;3.67;;;794.40;1280.00;;;;;;4900094;29;20048;-82
2021/09/14 10:47:48;;;;;;;8.10;3.78;;;794.50;1280.00;;;;;;4890856;29;20025;-79
2021/09/14 10:50:29;;;;;;;5.43;3.95;;;819.20;1254.40;;;;;;4899450;29;20052;-81
2021/09/14 10:53:02;;;;;;;6.72;3.78;;;819.30;1228.80;;;;;;4897767;29;20017;-83
2021/09/14 10:55:30;;;;;;;5.03;3.60;;;819.30;1228.80;;;;;;4892817;29;20081;-80
2021/09/14 10:58:00;;;;;;;6.35;3.45;;;819.30;1228.80;;;;;;4899430;29;20479;-84
2021/09/14 11:00:32;;;;;;;6.53;3.78;;;819.50;1203.20;;;;;;4898901;29;20040;-83
2021/09/14 11:03:04;;;;;;;7.75;3.42;;;794.50;1228.80;;;;;;4900928;29;20036;-88
2021/09/14 11:05:32;;;;;;;4.80;3.60;;;794.50;1254.40;;;;;;4900099;29;20043;-80
2021/09/14 11:08:11;;;;;;;7.18;3.38;;;819.20;1280.00;;;;;;4897529;29;20028;-77
2021/09/14 11:10:39;;;;;;;9.98;6.38;;;819.40;1228.80;;;;;;4900283;29;20491;-79
2021/09/14 11:13:05;;;;;;;6.35;3.90;;;819.50;1228.80;;;;;;4900159;29;20044;-80
2021/09/14 11:15:32;;;;;;;8.10;3.85;;;819.60;1177.60;;;;;;4894520;29;20458;-82
2021/09/14 11:17:58;;;;;;;4.97;3.78;;;819.70;1228.80;;;;;;4890427;29;20025;-78
2021/09/14 11:20:26;;;;;;;6.30;4.25;;;819.90;1177.60;;;;;;4886261;29;20094;-80
2021/09/14 11:22:54;;;;;;;7.43;3.83;;;819.90;1177.60;;;;;;4902417;29;20376;-79
2021/09/14 11:25:22;;;;;;;6.13;3.95;;;820.00;1152.00;;;;;;4891101;29;20116;-76
2021/09/14 11:28:01;;;;;;;6.22;3.88;;;820.10;1177.60;;;;;;4899397;29;20392;-76
2021/09/14 11:30:29;;;;;;;4.35;3.40;;;820.10;1126.40;;;;;;4893226;29;20029;-76
2021/09/14 11:32:55;;;;;;;6.80;4.38;;;820.10;1152.00;;;;;;4899576;29;20029;-77
2021/09/14 11:35:22;;;;;;;7.88;4.07;;;820.10;1152.00;;;;;;4886484;29;20408;-78
2021/09/14 11:38:05;;;;;;;4.10;3.65;;;844.80;1152.00;;;;;;4890938;29;20044;-79
2021/09/14 11:40:33;;;;;;;7.85;3.45;;;820.10;1126.40;;;;;;4885810;29;20022;-78
2021/09/14 11:43:01;;;;;;;5.82;3.80;;;820.10;1126.40;;;;;;4889704;29;20365;-79
2021/09/14 11:45:33;;;;;;;6.25;3.50;;;820.10;1126.40;;;;;;4889380;29;20028;-79
2021/09/14 11:48:01;;;;;;;5.05;3.70;;;844.80;1152.00;;;;;;4891256;29;20384;-76
2021/09/14 11:50:33;;;;;;;5.53;3.67;;;820.10;1152.00;;;;;;4888487;29;20164;-77
2021/09/14 11:53:13;;;;;;;8.27;3.75;;;844.90;1152.00;;;;;;4889364;29;20031;-78
2021/09/14 11:55:47;;;;;;;5.00;3.28;;;845.20;1152.00;;;;;;4890508;29;20021;-82
2021/09/14 11:58:14;;;;;;;4.80;3.40;;;845.30;1126.40;;;;;;4885783;29;20100;-77
2021/09/14 12:00:44;;;;;;;5.18;3.42;;;845.40;1126.40;;;;;;4893295;29;20023;-78
2021/09/14 12:03:10;;;;;;;6.05;3.65;;;845.40;1100.80;;;;;;4898870;29;20088;-78
2021/09/14 12:05:36;;;;;;;6.03;3.75;;;845.40;1100.80;;;;;;4899183;29;20028;-79
2021/09/14 12:08:08;;;;;;;8.70;3.75;;;845.50;1100.80;;;;;;4898806;29;20115;-77
2021/09/14 12:10:46;;;;;;;7.22;3.55;;;845.60;1075.20;;;;;;4898867;29;20032;-79
2021/09/14 12:13:17;;;;;;;5.57;3.75;;;845.40;1152.00;;;;;;4892013;29;20106;-80
2021/09/14 12:15:45;;;;;;;9.38;5.32;;;845.70;1075.20;;;;;;4889614;29;20040;-79
2021/09/14 12:18:16;;;;;;;7.78;4.30;;;845.70;1075.20;;;;;;4892098;29;20513;-84
2021/09/14 12:20:43;;;;;;;6.40;5.57;;;845.40;1100.80;;;;;;4888335;29;20052;-83
2021/09/14 12:23:12;;;;;;;6.13;3.83;;;845.30;1100.80;;;;;;4892185;29;20044;-83
2021/09/14 12:25:38;;;;;;;7.72;3.45;;;845.10;1100.80;;;;;;4889075;29;20044;-81
2021/09/14 12:28:04;;;;;;;4.63;3.85;;;844.90;1100.80;;;;;;4879763;29;20462;-81
2021/09/14 12:30:30;;;;;;;4.47;3.83;;;844.80;1100.80;;;;;;4879805;29;20033;-79
2021/09/14 12:32:56;;;;;;;9.35;3.97;;;819.80;1126.40;;;;;;4886101;29;20395;-77
2021/09/14 12:35:22;;;;;;;5.32;3.03;;;819.50;1152.00;;;;;;4890029;29;20120;-77
2021/09/14 12:37:47;;;;;;;10.77;3.60;;;819.50;1152.00;;;;;;4912651;29;20123;-78
2021/09/14 12:40:14;;;;;;;7.40;4.07;;;819.40;1152.00;;;;;;4898085;29;20040;-78
2021/09/14 12:42:40;;;;;;;5.32;3.55;;;819.60;1152.00;;;;;;4898181;29;20039;-77
2021/09/14 12:45:06;;;;;;;6.78;3.80;;;819.60;1152.00;;;;;;4895602;29;20816;-78
2021/09/14 12:47:32;;;;;;;7.70;3.42;;;819.60;1126.40;;;;;;4906769;29;20036;-77
2021/09/14 12:49:58;;;;;;;4.90;3.47;;;819.40;1152.00;;;;;;4897799;29;20043;-76
2021/09/14 12:52:25;;;;;;;4.70;3.30;;;819.20;1152.00;;;;;;4888434;29;20029;-78
2021/09/14 12:54:51;;;;;;;6.15;3.70;;;819.30;1100.80;;;;;;4889248;29;20036;-78
2021/09/14 12:57:16;;;;;;;4.35;3.67;;;819.40;1100.80;;;;;;4878624;29;20021;-78
2021/09/14 12:59:42;;;;;;;7.22;3.17;;;819.60;1126.40;;;;;;4888156;29;20024;-78
2021/09/14 13:02:08;;;;;;;5.25;3.50;;;819.90;1126.40;;;;;;4886304;29;20102;-77
2021/09/14 13:04:34;;;;;;;4.28;3.30;;;819.70;1126.40;;;;;;4887178;29;20073;-78
2021/09/14 13:07:01;;;;;;;5.95;3.70;;;819.80;1126.40;;;;;;4901425;29;20611;-76
2021/09/14 13:09:26;;;;;;;4.68;3.42;;;819.90;1100.80;;;;;;4879726;29;20048;-77